createdAt,value
2023-03-03T00:01:19.526Z,55.33
2023-03-03T00:06:40.459Z,55.34
2023-03-03T00:12:06.296Z,55.07
2023-03-03T00:17:32.843Z,55.45
2023-03-03T00:22:53.867Z,55.29
2023-03-03T00:28:48.208Z,55.60
2023-03-03T00:34:27.714Z,55.69
2023-03-03T00:39:48.886Z,55.62
2023-03-03T00:45:27.523Z,55.75
2023-03-03T00:50:48.985Z,55.85
2023-03-03T00:56:09.775Z,55.66
2023-03-03T01:01:30.675Z,55.49
2023-03-03T01:06:51.215Z,55.94
2023-03-03T01:12:12.357Z,56.20
2023-03-03T01:17:34.416Z,55.87
2023-03-03T01:22:55.024Z,56.00
2023-03-03T01:28:16.203Z,55.82
2023-03-03T01:33:36.976Z,55.74
2023-03-03T01:38:57.763Z,56.33
2023-03-03T01:44:18.476Z,55.99
2023-03-03T01:50:04.448Z,56.23
2023-03-03T01:55:30.905Z,56.14
2023-03-03T02:00:57.747Z,55.82
2023-03-03T02:06:22.771Z,56.46
2023-03-03T02:11:45.751Z,56.43
2023-03-03T02:17:06.722Z,55.88
2023-03-03T02:22:40.228Z,56.13
2023-03-03T02:28:02.304Z,55.75
2023-03-03T02:33:23.491Z,56.14
2023-03-03T02:38:59.299Z,55.87
2023-03-03T02:44:26.618Z,56.64
2023-03-03T02:49:47.377Z,56.32
2023-03-03T02:55:08.719Z,56.16
2023-03-03T03:00:29.729Z,56.33
2023-03-03T03:05:50.260Z,56.20
2023-03-03T03:11:14.411Z,56.34
2023-03-03T03:16:36.165Z,56.50
2023-03-03T03:21:56.910Z,56.41
2023-03-03T03:27:19.371Z,56.69
2023-03-03T03:32:42.500Z,56.76
2023-03-03T03:38:04.198Z,56.71
2023-03-03T03:43:26.849Z,56.42
2023-03-03T03:48:47.907Z,57.14
2023-03-03T03:54:11.716Z,57.07
2023-03-03T03:59:34.031Z,56.79
2023-03-03T04:04:54.618Z,56.98
2023-03-03T04:10:15.403Z,56.93
2023-03-03T04:15:36.126Z,56.97
2023-03-03T04:20:57.652Z,56.64
2023-03-03T04:26:19.728Z,57.01
2023-03-03T04:31:42.335Z,57.06
2023-03-03T04:37:05.768Z,56.70
2023-03-03T04:42:28.295Z,56.84
2023-03-03T04:47:49.230Z,56.84
2023-03-03T04:53:11.016Z,57.17
2023-03-03T04:58:33.214Z,57.33
2023-03-03T05:03:53.769Z,57.56
2023-03-03T05:09:14.480Z,57.53
2023-03-03T05:14:35.189Z,57.28
2023-03-03T05:19:57.349Z,57.30
2023-03-03T05:25:18.230Z,57.11
2023-03-03T05:30:39.242Z,57.93
2023-03-03T05:36:00.348Z,57.61
2023-03-03T05:41:21.061Z,57.33
2023-03-03T05:46:42.767Z,57.53
2023-03-03T05:52:04.175Z,57.87
2023-03-03T05:57:24.910Z,57.77
2023-03-03T06:02:46.206Z,57.84
2023-03-03T06:08:07.233Z,57.81
2023-03-03T06:13:28.076Z,57.82
2023-03-03T06:18:48.996Z,57.65
2023-03-03T06:24:09.876Z,57.90
2023-03-03T06:29:30.836Z,58.14
2023-03-03T06:34:51.531Z,58.23
2023-03-03T06:40:12.757Z,58.29
2023-03-03T06:45:33.521Z,58.35
2023-03-03T06:50:54.122Z,58.56
2023-03-03T06:56:14.876Z,58.47
2023-03-03T07:01:38.456Z,59.70
2023-03-03T07:07:16.888Z,59.03
2023-03-03T07:12:37.960Z,59.10
2023-03-03T07:17:59.745Z,59.52
2023-03-03T07:23:42.599Z,59.53
2023-03-03T07:29:33.377Z,62.72
2023-03-03T07:34:55.577Z,60.32
2023-03-03T07:40:34.895Z,59.60
2023-03-03T07:46:11.221Z,59.69
2023-03-03T07:51:42.102Z,60.46
2023-03-03T07:57:12.288Z,60.54
2023-03-03T08:02:41.556Z,60.48
2023-03-03T08:08:37.031Z,61.23
2023-03-03T08:13:57.758Z,61.06
2023-03-03T08:19:18.896Z,61.48
2023-03-03T08:24:39.393Z,61.49
2023-03-03T08:30:00.127Z,61.77
2023-03-03T08:35:20.926Z,62.01
2023-03-03T08:40:42.586Z,62.09
2023-03-03T08:46:06.171Z,62.45
2023-03-03T08:51:27.431Z,62.42
2023-03-03T08:56:48.451Z,62.36
2023-03-03T09:02:09.376Z,62.60
2023-03-03T09:07:30.609Z,62.95
2023-03-03T09:12:51.837Z,62.67
2023-03-03T09:18:15.735Z,63.03
2023-03-03T09:23:38.745Z,63.18
2023-03-03T09:29:05.108Z,63.09
2023-03-03T09:34:42.729Z,63.54
2023-03-03T09:40:33.212Z,63.58
2023-03-03T09:46:23.539Z,63.67
2023-03-03T09:51:53.364Z,63.05
2023-03-03T09:57:34.270Z,63.21
2023-03-03T10:03:22.694Z,62.77
2023-03-03T10:09:12.007Z,63.68
2023-03-03T10:15:17.397Z,63.48
2023-03-03T10:20:59.624Z,63.61
2023-03-03T10:26:34.837Z,63.93
2023-03-03T10:32:03.138Z,63.42
2023-03-03T10:37:27.731Z,62.90
2023-03-03T10:43:31.883Z,63.20
2023-03-03T10:49:06.246Z,62.71
2023-03-03T10:54:38.671Z,62.68
2023-03-03T11:00:16.767Z,62.41
2023-03-03T11:05:48.278Z,63.36
2023-03-03T11:11:15.322Z,62.58
2023-03-03T11:17:16.284Z,63.20
2023-03-03T11:22:55.086Z,63.07
2023-03-03T11:28:21.988Z,62.61
2023-03-03T11:33:56.475Z,62.54
2023-03-03T11:39:22.243Z,62.10
2023-03-03T11:44:47.937Z,62.32
2023-03-03T11:50:14.218Z,62.74
2023-03-03T11:55:41.416Z,62.84
2023-03-03T12:01:20.059Z,61.97
2023-03-03T12:07:12.903Z,62.39
2023-03-03T12:13:05.128Z,61.88
2023-03-03T12:18:38.195Z,61.46
2023-03-03T12:24:26.213Z,61.22
2023-03-03T12:30:20.373Z,61.07
2023-03-03T12:35:56.240Z,60.39
2023-03-03T12:41:20.511Z,59.98
2023-03-03T12:47:02.373Z,59.61
2023-03-03T12:52:51.419Z,59.90
2023-03-03T12:58:24.133Z,60.13
2023-03-03T13:03:55.710Z,59.75
2023-03-03T13:09:41.176Z,59.88
2023-03-03T13:15:16.354Z,59.60
2023-03-03T13:20:46.255Z,59.33
2023-03-03T13:26:50.137Z,59.96
2023-03-03T13:32:23.282Z,59.08
2023-03-03T13:37:52.675Z,59.42
2023-03-03T13:43:15.995Z,58.88
2023-03-03T13:48:46.722Z,58.96
2023-03-03T13:54:20.548Z,58.18
2023-03-03T14:00:04.782Z,58.24
2023-03-03T14:05:48.582Z,57.98
2023-03-03T14:11:24.046Z,58.03
2023-03-03T14:16:54.863Z,57.20
2023-03-03T14:22:40.232Z,56.81
2023-03-03T14:28:16.119Z,57.14
2023-03-03T14:33:37.122Z,58.14
2023-03-03T14:38:57.978Z,57.50
2023-03-03T14:44:36.171Z,57.27
2023-03-03T14:50:00.422Z,56.57
2023-03-03T14:55:35.986Z,56.62
2023-03-03T15:01:12.333Z,56.75
2023-03-03T15:06:48.477Z,56.22
2023-03-03T15:12:24.830Z,56.14
2023-03-03T15:18:05.334Z,56.59
2023-03-03T15:23:51.631Z,56.28
2023-03-03T15:29:22.568Z,56.58
2023-03-03T15:35:12.145Z,56.19
2023-03-03T15:40:53.412Z,56.91
2023-03-03T15:46:35.197Z,56.71
2023-03-03T15:52:21.467Z,56.90
2023-03-03T15:58:33.356Z,57.26
2023-03-03T16:04:09.691Z,56.96
2023-03-03T16:09:52.299Z,56.93
2023-03-03T16:15:35.354Z,56.96
2023-03-03T16:21:02.377Z,56.94
2023-03-03T16:26:47.734Z,57.44
2023-03-03T16:32:22.833Z,57.08
2023-03-03T16:38:05.679Z,56.96
2023-03-03T16:43:38.491Z,57.13
2023-03-03T16:49:16.990Z,57.18
2023-03-03T16:54:58.629Z,57.36
2023-03-03T17:00:28.576Z,57.06
2023-03-03T17:05:58.135Z,57.57
2023-03-03T17:11:35.088Z,57.07
2023-03-03T17:17:01.199Z,57.47
2023-03-03T17:22:46.427Z,56.88
2023-03-03T17:28:07.245Z,57.37
2023-03-03T17:33:57.447Z,57.05
2023-03-03T17:39:51.953Z,58.43
2023-03-03T17:45:15.700Z,58.28
2023-03-03T17:50:59.100Z,58.05
2023-03-03T17:56:40.178Z,59.00
2023-03-03T18:02:16.579Z,57.88
2023-03-03T18:08:04.740Z,57.74
2023-03-03T18:13:50.449Z,58.05
2023-03-03T18:19:52.616Z,58.07
2023-03-03T18:25:17.107Z,58.29
2023-03-03T18:30:46.993Z,58.49
2023-03-03T18:36:36.395Z,57.98
2023-03-03T18:42:11.542Z,58.72
2023-03-03T18:47:57.694Z,58.08
2023-03-03T18:53:31.073Z,58.57
2023-03-03T18:58:53.691Z,58.72
2023-03-03T19:04:16.349Z,59.04
2023-03-03T19:09:57.144Z,59.26
2023-03-03T19:15:30.325Z,59.07
2023-03-03T19:21:23.541Z,59.16
2023-03-03T19:27:09.865Z,59.10
2023-03-03T19:32:48.489Z,59.46
2023-03-03T19:38:32.353Z,59.17
2023-03-03T19:44:22.123Z,59.79
2023-03-03T19:50:10.357Z,59.84
2023-03-03T19:55:35.067Z,59.78
2023-03-03T20:00:55.705Z,59.73
2023-03-03T20:06:44.406Z,59.54
2023-03-03T20:12:16.469Z,60.16
2023-03-03T20:17:47.456Z,60.02
2023-03-03T20:23:26.710Z,59.62
2023-03-03T20:29:15.837Z,60.16
2023-03-03T20:35:03.224Z,59.94
2023-03-03T20:40:33.553Z,60.09
2023-03-03T20:46:08.256Z,59.99
2023-03-03T20:52:02.181Z,59.72
2023-03-03T20:57:38.661Z,59.66
2023-03-03T21:03:06.294Z,59.68
2023-03-03T21:08:48.573Z,60.05
2023-03-03T21:14:33.518Z,60.08
2023-03-03T21:19:54.592Z,59.62
2023-03-03T21:25:40.228Z,59.53
2023-03-03T21:31:15.488Z,59.86
2023-03-03T21:36:36.709Z,60.06
2023-03-03T21:42:09.484Z,60.13
2023-03-03T21:47:31.261Z,59.87
2023-03-03T21:52:52.402Z,59.88
2023-03-03T21:58:13.161Z,60.34
2023-03-03T22:03:34.416Z,60.06
2023-03-03T22:08:55.342Z,59.98
2023-03-03T22:14:16.122Z,60.44
2023-03-03T22:19:38.304Z,60.73
2023-03-03T22:24:59.044Z,60.82
2023-03-03T22:30:19.919Z,60.60
2023-03-03T22:35:40.826Z,60.45
2023-03-03T22:41:01.899Z,60.21
2023-03-03T22:46:23.175Z,60.04
2023-03-03T22:51:44.081Z,60.23
2023-03-03T22:57:04.735Z,60.90
2023-03-03T23:02:25.791Z,60.28
2023-03-03T23:07:46.772Z,60.27
2023-03-03T23:13:08.794Z,60.18
2023-03-03T23:18:29.625Z,60.72
2023-03-03T23:23:50.403Z,60.25
2023-03-03T23:29:10.982Z,59.91
2023-03-03T23:34:32.536Z,60.13
2023-03-03T23:39:53.123Z,60.14
2023-03-03T23:45:14.263Z,60.31
2023-03-03T23:50:37.256Z,60.55
2023-03-03T23:55:58.314Z,59.54
